Terminal Aerodrome Forecast
Issued by NWS Louisville, KY

Home | Current Version | Previous Version | Text Only | Print | Product List | Glossary On
Versions: 1 2 3 4 5 6 7 8 9 10 11 12 13 14 15 16 17 18
000
FTUS43 KLMK 231400 AAA
TAFLEX
TAF AMD
KLEX 231434Z 2315/2412 03004KT 6SM BR VCSH BKN040
      TEMPO 2315/2318 VRB10G20KT 2SM -TSRA BKN030CB
     FM231800 28007KT P6SM VCTS SCT040CB
     FM232200 32007KT P6SM VCTS BKN040CB
     FM240200 01007KT P6SM BKN045=

USA.gov is the U.S. government's official web portal to all federal, state and local government web resources and services.